createdAt,value
2018-05-01T00:01:00.495Z,19.20
2018-05-01T00:03:28.792Z,19.30
2018-05-01T00:05:57.063Z,19.57
2018-05-01T00:08:26.127Z,18.37
2018-05-01T00:10:55.211Z,21.70
2018-05-01T00:13:23.489Z,23.23
2018-05-01T00:15:51.785Z,20.70
2018-05-01T00:18:20.059Z,21.00
2018-05-01T00:20:48.515Z,22.20
2018-05-01T00:23:16.791Z,20.63
2018-05-01T00:25:45.101Z,19.83
2018-05-01T00:28:13.387Z,19.30
2018-05-01T00:30:41.697Z,19.40
2018-05-01T00:33:09.997Z,18.50
2018-05-01T00:35:38.318Z,16.50
2018-05-01T00:38:06.602Z,19.17
2018-05-01T00:40:35.019Z,20.83
2018-05-01T00:43:03.304Z,18.60
2018-05-01T00:45:32.354Z,15.53
2018-05-01T00:48:01.531Z,15.30
2018-05-01T00:50:29.809Z,15.03
2018-05-01T00:52:58.151Z,16.30
2018-05-01T00:55:26.405Z,15.20
2018-05-01T00:57:54.707Z,15.23
2018-05-01T01:00:23.773Z,16.30
2018-05-01T01:02:52.077Z,15.67
2018-05-01T01:05:20.348Z,17.00
2018-05-01T01:07:48.663Z,16.60
2018-05-01T01:10:17.047Z,15.90
2018-05-01T01:12:45.461Z,17.27
2018-05-01T01:15:13.864Z,17.77
2018-05-01T01:17:42.226Z,18.70
2018-05-01T01:20:10.495Z,16.43
2018-05-01T01:22:38.779Z,18.80
2018-05-01T01:25:07.088Z,17.97
2018-05-01T01:27:36.137Z,15.70
2018-05-01T01:30:04.479Z,17.73
2018-05-01T01:32:33.513Z,18.37
2018-05-01T01:35:01.331Z,16.50
2018-05-01T01:37:29.907Z,15.57
2018-05-01T01:39:57.694Z,16.43
2018-05-01T01:42:25.558Z,16.50
2018-05-01T01:44:53.355Z,15.53
2018-05-01T01:47:21.150Z,17.17
2018-05-01T01:49:48.962Z,17.03
2018-05-01T01:52:16.762Z,15.50
2018-05-01T01:54:44.591Z,18.73
2018-05-01T01:57:13.138Z,20.33
2018-05-01T01:59:40.950Z,18.40
2018-05-01T02:02:08.735Z,18.23
2018-05-01T02:04:36.526Z,18.70
2018-05-01T02:07:04.289Z,18.87
2018-05-01T02:09:32.151Z,20.37
2018-05-01T02:11:59.919Z,19.60
2018-05-01T02:14:27.711Z,20.03
2018-05-01T02:16:55.512Z,20.47
2018-05-01T02:19:23.305Z,23.03
2018-05-01T02:21:51.129Z,19.87
2018-05-01T02:24:18.909Z,21.50
2018-05-01T02:26:46.725Z,21.40
2018-05-01T02:29:14.512Z,20.30
2018-05-01T02:31:42.313Z,21.60
2018-05-01T02:34:10.090Z,19.27
2018-05-01T02:36:37.902Z,19.07
2018-05-01T02:39:05.681Z,19.67
2018-05-01T02:41:33.454Z,19.47
2018-05-01T02:44:02.039Z,23.23
2018-05-01T02:46:29.799Z,17.90
2018-05-01T02:48:57.591Z,17.40
2018-05-01T02:51:25.368Z,18.07
2018-05-01T02:53:53.159Z,16.93
2018-05-01T02:56:20.939Z,16.57
2018-05-01T02:58:48.755Z,12.57
2018-05-01T03:01:17.312Z,13.13
2018-05-01T03:03:45.086Z,11.60
2018-05-01T03:06:13.656Z,11.07
2018-05-01T03:08:41.434Z,10.07
2018-05-01T03:11:09.218Z,12.23
2018-05-01T03:13:36.993Z,10.70
2018-05-01T03:16:04.805Z,11.53
2018-05-01T03:18:32.601Z,12.40
2018-05-01T03:21:00.379Z,10.80
2018-05-01T03:23:28.941Z,10.63
2018-05-01T03:25:56.723Z,11.23
2018-05-01T03:28:25.294Z,12.00
2018-05-01T03:30:53.070Z,9.63
2018-05-01T03:33:21.638Z,9.20
2018-05-01T03:35:49.411Z,10.23
2018-05-01T03:38:17.175Z,8.40
2018-05-01T03:40:44.961Z,8.30
2018-05-01T03:43:13.498Z,10.30
2018-05-01T03:45:41.294Z,8.00
2018-05-01T03:48:09.089Z,8.40
2018-05-01T03:50:36.905Z,8.60
2018-05-01T03:53:04.673Z,9.03
2018-05-01T03:55:32.482Z,7.43
2018-05-01T03:58:00.998Z,6.80
2018-05-01T04:00:28.790Z,6.17
2018-05-01T04:02:56.554Z,6.23
2018-05-01T04:05:24.358Z,6.13
2018-05-01T04:07:52.129Z,6.80
2018-05-01T04:10:20.669Z,5.80
2018-05-01T04:12:48.459Z,6.77
2018-05-01T04:15:16.235Z,6.33
2018-05-01T04:17:44.789Z,5.33
2018-05-01T04:20:12.582Z,5.60
2018-05-01T04:22:41.296Z,5.73
2018-05-01T04:25:12.197Z,7.20
2018-05-01T04:27:40.003Z,5.07
2018-05-01T04:30:07.775Z,5.80
2018-05-01T04:32:35.556Z,4.43
2018-05-01T04:35:03.417Z,4.93
2018-05-01T04:37:31.197Z,4.70
2018-05-01T04:39:58.999Z,5.03
2018-05-01T04:42:26.812Z,4.50
2018-05-01T04:44:54.557Z,4.57
2018-05-01T04:47:22.331Z,5.17
2018-05-01T04:49:50.121Z,6.03
2018-05-01T04:52:17.883Z,5.33
2018-05-01T04:54:45.666Z,4.80
2018-05-01T04:57:13.439Z,6.40
2018-05-01T04:59:41.205Z,4.23
2018-05-01T05:02:09.023Z,4.33
2018-05-01T05:04:37.783Z,3.67
2018-05-01T05:07:05.558Z,4.83
2018-05-01T05:09:33.376Z,4.20
2018-05-01T05:12:01.115Z,4.47
2018-05-01T05:14:28.885Z,3.80
2018-05-01T05:16:56.674Z,4.67
2018-05-01T05:19:24.462Z,4.63
2018-05-01T05:21:52.226Z,8.13
2018-05-01T05:24:20.008Z,4.10
2018-05-01T05:26:48.247Z,4.37
2018-05-01T05:29:16.037Z,4.60
2018-05-01T05:31:43.824Z,3.83
2018-05-01T05:34:11.597Z,4.57
2018-05-01T05:36:40.129Z,4.40
2018-05-01T05:39:08.689Z,6.40
2018-05-01T05:41:36.502Z,4.03
2018-05-01T05:44:04.295Z,5.07
2018-05-01T05:46:32.058Z,5.00
2018-05-01T05:48:59.859Z,13.63
2018-05-01T05:51:27.660Z,5.07
2018-05-01T05:53:55.438Z,3.27
2018-05-01T05:56:23.264Z,4.03
2018-05-01T05:58:51.083Z,4.30
2018-05-01T06:01:18.875Z,4.17
2018-05-01T06:03:47.420Z,3.27
2018-05-01T06:06:15.223Z,3.27
2018-05-01T06:08:43.756Z,4.00
2018-05-01T06:11:11.587Z,6.07
2018-05-01T06:13:39.361Z,5.27
2018-05-01T06:16:07.117Z,3.23
2018-05-01T06:18:35.714Z,4.20
2018-05-01T06:21:04.247Z,3.80
2018-05-01T06:23:32.091Z,4.00
2018-05-01T06:25:59.847Z,4.00
2018-05-01T06:28:27.641Z,3.63
2018-05-01T06:30:55.431Z,3.20
2018-05-01T06:33:23.271Z,4.20
2018-05-01T06:35:51.034Z,3.10
2018-05-01T06:38:18.878Z,5.70
2018-05-01T06:40:46.681Z,4.70
2018-05-01T06:43:14.503Z,5.80
2018-05-01T06:45:42.567Z,3.27
2018-05-01T06:48:10.337Z,3.27
2018-05-01T06:50:38.151Z,3.03
2018-05-01T06:53:05.939Z,5.47
2018-05-01T06:55:33.734Z,2.67
2018-05-01T06:58:01.520Z,2.90
2018-05-01T07:00:30.365Z,2.73
2018-05-01T07:02:58.991Z,3.30
2018-05-01T07:05:26.843Z,3.30
2018-05-01T07:07:54.651Z,4.63
2018-05-01T07:10:22.596Z,3.87
2018-05-01T07:12:51.230Z,2.90
2018-05-01T07:15:19.377Z,2.50
2018-05-01T07:17:48.885Z,3.20
2018-05-01T07:20:16.913Z,2.40
2018-05-01T07:22:45.271Z,2.17
2018-05-01T07:25:13.835Z,5.57
2018-05-01T07:27:41.877Z,3.03
2018-05-01T07:30:09.725Z,3.27
2018-05-01T07:32:37.555Z,2.50
2018-05-01T07:35:06.178Z,2.30
2018-05-01T07:37:34.275Z,2.23
2018-05-01T07:42:37.272Z,2.33
2018-05-01T07:45:06.160Z,2.90
2018-05-01T07:47:33.945Z,2.97
2018-05-01T07:50:01.924Z,4.10
2018-05-01T07:52:29.925Z,1.90
2018-05-01T07:54:57.936Z,3.57
2018-05-01T07:57:25.734Z,4.07
2018-05-01T07:59:53.539Z,4.23
2018-05-01T08:02:22.082Z,4.37
2018-05-01T08:04:49.883Z,2.50
2018-05-01T08:07:17.686Z,2.50
2018-05-01T08:09:45.451Z,3.00
2018-05-01T08:12:13.560Z,2.30
2018-05-01T08:14:41.329Z,3.00
2018-05-01T08:17:09.145Z,2.87
2018-05-01T08:19:37.733Z,2.70
2018-05-01T08:22:05.572Z,4.00
2018-05-01T08:24:33.456Z,2.50
2018-05-01T08:27:06.900Z,2.80
2018-05-01T08:29:34.723Z,3.90
2018-05-01T08:32:03.424Z,2.60
2018-05-01T08:34:32.010Z,3.03
2018-05-01T08:37:00.720Z,2.87
2018-05-01T08:39:28.702Z,5.50
2018-05-01T08:41:56.639Z,2.63
2018-05-01T08:44:25.297Z,2.70
2018-05-01T08:46:53.667Z,3.37
2018-05-01T08:49:21.490Z,3.23
2018-05-01T08:51:49.383Z,3.40
2018-05-01T08:54:17.213Z,3.73
2018-05-01T08:56:45.864Z,5.43
2018-05-01T08:59:13.744Z,4.73
2018-05-01T09:01:42.327Z,5.03
2018-05-01T09:04:10.308Z,3.30
2018-05-01T09:06:38.091Z,3.57
2018-05-01T09:09:07.281Z,3.80
2018-05-01T09:11:35.294Z,3.70
2018-05-01T09:14:03.343Z,2.90
2018-05-01T09:16:32.159Z,6.20
2018-05-01T09:19:06.286Z,3.83
2018-05-01T09:24:44.549Z,2.90
2018-05-01T09:30:05.976Z,3.20
2018-05-01T09:32:35.407Z,3.83
2018-05-01T09:35:03.317Z,6.47
2018-05-01T09:37:31.137Z,4.17
2018-05-01T09:39:59.879Z,2.50
2018-05-01T09:42:27.745Z,2.67
2018-05-01T09:44:55.596Z,4.33
2018-05-01T09:47:23.487Z,2.87
2018-05-01T09:49:51.462Z,3.53
2018-05-01T09:52:19.891Z,2.90
2018-05-01T09:54:48.200Z,2.67
2018-05-01T09:57:16.568Z,7.67
2018-05-01T09:59:45.085Z,3.73
2018-05-01T10:02:14.171Z,3.50
2018-05-01T10:04:42.545Z,3.50
2018-05-01T10:07:13.664Z,2.73
2018-05-01T10:09:44.646Z,3.27
2018-05-01T10:12:13.884Z,3.10
2018-05-01T10:14:42.838Z,2.60
2018-05-01T10:17:11.210Z,2.63
2018-05-01T10:19:41.099Z,3.23
2018-05-01T10:22:10.173Z,4.63
2018-05-01T10:24:39.384Z,2.03
2018-05-01T10:27:07.832Z,2.30
2018-05-01T10:29:38.737Z,2.50
2018-05-01T10:32:07.086Z,2.77
2018-05-01T10:34:35.644Z,2.30
2018-05-01T10:37:04.430Z,2.40
2018-05-01T10:39:33.165Z,2.70
2018-05-01T10:42:01.490Z,1.97
2018-05-01T10:44:30.440Z,2.77
2018-05-01T10:46:58.869Z,2.40
2018-05-01T10:49:27.238Z,2.00
2018-05-01T10:51:56.139Z,2.23
2018-05-01T10:54:24.566Z,2.23
2018-05-01T10:56:52.872Z,1.70
2018-05-01T10:59:21.196Z,2.50
2018-05-01T11:01:49.480Z,2.03
2018-05-01T11:04:18.801Z,1.53
2018-05-01T11:06:47.152Z,1.83
2018-05-01T11:09:16.258Z,1.87
2018-05-01T11:11:45.323Z,1.70
2018-05-01T11:14:13.662Z,2.03
2018-05-01T11:16:42.008Z,2.70
2018-05-01T11:19:11.923Z,3.30
2018-05-01T11:21:40.251Z,1.73
2018-05-01T11:24:08.549Z,1.97
2018-05-01T11:26:36.914Z,3.87
2018-05-01T11:29:05.395Z,2.03
2018-05-01T11:31:33.713Z,2.00
2018-05-01T11:34:02.084Z,2.17
2018-05-01T11:36:30.697Z,1.90
2018-05-01T11:38:59.079Z,1.97
2018-05-01T11:41:28.134Z,2.17
2018-05-01T11:43:56.424Z,1.80
2018-05-01T11:46:24.897Z,2.37
2018-05-01T11:48:53.215Z,3.10
2018-05-01T11:51:22.412Z,1.80
2018-05-01T11:53:51.133Z,4.10
2018-05-01T11:56:22.690Z,1.93
2018-05-01T11:58:50.994Z,1.50
2018-05-01T12:01:19.619Z,1.60
2018-05-01T12:03:48.517Z,2.37
2018-05-01T12:06:17.279Z,2.17
2018-05-01T12:08:47.339Z,3.80
2018-05-01T12:11:25.610Z,5.33
2018-05-01T12:14:08.139Z,3.13
2018-05-01T12:16:37.285Z,6.80
2018-05-01T12:19:05.746Z,1.70
2018-05-01T12:21:34.215Z,1.60
2018-05-01T12:24:02.588Z,2.40
2018-05-01T12:26:32.097Z,2.40
2018-05-01T12:29:00.417Z,1.60
2018-05-01T12:31:28.715Z,2.20
2018-05-01T12:33:57.011Z,3.17
2018-05-01T12:36:26.110Z,2.03
2018-05-01T12:38:55.209Z,4.43
2018-05-01T12:41:24.286Z,1.70
2018-05-01T12:43:52.677Z,1.80
2018-05-01T12:46:21.786Z,1.40
2018-05-01T12:48:50.406Z,1.10
2018-05-01T12:51:19.125Z,1.60
2018-05-01T12:53:48.509Z,1.50
2018-05-01T12:56:16.946Z,1.70
2018-05-01T12:58:45.376Z,2.30
2018-05-01T13:01:13.729Z,1.67
2018-05-01T13:03:42.248Z,2.77
2018-05-01T13:06:11.493Z,2.00
2018-05-01T13:08:40.609Z,2.03
2018-05-01T13:11:09.508Z,1.40
2018-05-01T13:13:38.755Z,1.47
2018-05-01T13:16:07.933Z,1.50
2018-05-01T13:18:36.323Z,1.87
2018-05-01T13:21:04.642Z,2.03
2018-05-01T13:23:33.048Z,2.00
2018-05-01T13:26:01.413Z,1.60
2018-05-01T13:28:29.811Z,1.60
2018-05-01T13:30:58.182Z,1.70
2018-05-01T13:33:27.248Z,1.80
2018-05-01T13:35:56.403Z,1.40
2018-05-01T13:38:25.000Z,2.30
2018-05-01T13:40:53.761Z,1.93
2018-05-01T13:43:24.049Z,1.10
2018-05-01T13:45:52.764Z,2.63
2018-05-01T13:48:21.313Z,1.67
2018-05-01T13:50:49.751Z,2.07
2018-05-01T13:53:18.108Z,1.60
2018-05-01T13:55:46.504Z,3.20
2018-05-01T13:58:14.898Z,7.57
2018-05-01T14:00:43.328Z,2.10
2018-05-01T14:03:11.651Z,2.43
2018-05-01T14:05:40.024Z,1.40
2018-05-01T14:08:08.416Z,1.57
2018-05-01T14:10:36.724Z,1.70
2018-05-01T14:13:05.152Z,1.40
2018-05-01T14:15:33.521Z,1.10
2018-05-01T14:18:01.871Z,3.73
2018-05-01T14:20:30.242Z,1.27
2018-05-01T14:22:58.617Z,1.50
2018-05-01T14:25:27.094Z,1.40
2018-05-01T14:27:55.711Z,1.40
2018-05-01T14:30:24.240Z,3.50
2018-05-01T14:32:52.545Z,5.90
2018-05-01T14:35:20.894Z,3.17
2018-05-01T14:37:49.319Z,1.83
2018-05-01T14:40:17.735Z,1.57
2018-05-01T14:42:46.829Z,1.57
2018-05-01T14:45:15.130Z,1.60
2018-05-01T14:47:44.425Z,2.40
2018-05-01T14:51:06.011Z,2.23
2018-05-01T14:53:36.371Z,1.60
2018-05-01T14:56:06.609Z,1.60
2018-05-01T14:58:37.185Z,2.00
2018-05-01T15:01:08.256Z,2.33
2018-05-01T15:03:38.755Z,2.33
2018-05-01T15:06:09.061Z,3.40
2018-05-01T15:08:40.672Z,3.10
2018-05-01T15:11:11.180Z,4.13
2018-05-01T15:13:42.287Z,3.30
2018-05-01T15:16:13.661Z,1.67
2018-05-01T15:18:44.987Z,2.77
2018-05-01T15:21:15.587Z,2.13
2018-05-01T15:23:46.048Z,1.50
2018-05-01T15:26:16.389Z,2.70
2018-05-01T15:28:46.659Z,1.23
2018-05-01T15:31:17.326Z,3.57
2018-05-01T15:33:47.510Z,1.30
2018-05-01T15:36:18.022Z,1.43
2018-05-01T15:38:48.739Z,1.40
2018-05-01T15:41:18.977Z,3.00
2018-05-01T15:43:58.642Z,2.20
2018-05-01T15:46:32.360Z,1.40
2018-05-01T15:49:02.730Z,1.87
2018-05-01T15:51:32.872Z,1.40
2018-05-01T15:54:03.318Z,2.97
2018-05-01T15:56:33.960Z,2.10
2018-05-01T15:59:04.324Z,2.10
2018-05-01T16:01:34.672Z,1.03
2018-05-01T16:04:07.549Z,9.20
2018-05-01T16:06:38.034Z,1.40
2018-05-01T16:09:08.191Z,2.23
2018-05-01T16:11:39.373Z,1.17
2018-05-01T16:14:10.555Z,1.57
2018-05-01T16:16:41.978Z,1.63
2018-05-01T16:19:12.326Z,1.87
2018-05-01T16:21:42.636Z,1.13
2018-05-01T16:24:12.843Z,1.10
2018-05-01T16:26:43.240Z,2.20
2018-05-01T16:29:13.553Z,1.30
2018-05-01T16:31:43.714Z,14.23
2018-05-01T16:34:15.302Z,1.03
2018-05-01T16:36:45.966Z,3.10
2018-05-01T16:39:16.416Z,1.20
2018-05-01T16:41:47.427Z,1.33
2018-05-01T16:44:17.945Z,1.87
2018-05-01T16:46:48.391Z,1.63
2018-05-01T16:49:19.750Z,1.00
2018-05-01T16:51:50.251Z,1.10
2018-05-01T16:54:20.471Z,1.73
2018-05-01T16:56:50.933Z,2.60
2018-05-01T16:59:21.206Z,1.17
2018-05-01T17:01:51.515Z,1.20
2018-05-01T17:04:21.961Z,1.17
2018-05-01T17:06:52.145Z,1.40
2018-05-01T17:09:23.555Z,1.33
2018-05-01T17:11:54.646Z,1.40
2018-05-01T17:14:24.839Z,1.40
2018-05-01T17:16:55.285Z,2.23
2018-05-01T17:19:25.625Z,1.30
2018-05-01T17:21:56.142Z,1.53
2018-05-01T17:24:28.567Z,1.37
2018-05-01T17:26:58.929Z,6.13
2018-05-01T17:29:30.367Z,1.40
2018-05-01T17:32:00.634Z,1.30
2018-05-01T17:34:32.640Z,1.00
2018-05-01T17:37:03.618Z,0.93
2018-05-01T17:39:34.180Z,2.60
2018-05-01T17:42:04.969Z,1.30
2018-05-01T17:44:35.216Z,1.20
2018-05-01T17:47:06.220Z,1.10
2018-05-01T17:49:36.703Z,1.20
2018-05-01T17:52:07.003Z,3.70
2018-05-01T17:54:40.914Z,2.70
2018-05-01T17:57:11.532Z,1.77
2018-05-01T17:59:48.007Z,1.30
2018-05-01T18:02:20.755Z,1.43
2018-05-01T18:04:52.793Z,1.50
2018-05-01T18:07:25.194Z,1.93
2018-05-01T18:10:01.428Z,2.00
2018-05-01T18:12:34.855Z,2.20
2018-05-01T18:15:08.850Z,3.50
2018-05-01T18:17:39.376Z,2.20
2018-05-01T18:20:10.876Z,1.90
2018-05-01T18:22:47.961Z,2.20
2018-05-01T18:25:19.525Z,4.63
2018-05-01T18:28:16.383Z,3.27
2018-05-01T18:31:18.631Z,3.87
2018-05-01T18:33:50.800Z,3.30
2018-05-01T18:36:26.290Z,3.93
2018-05-01T18:39:16.061Z,2.60
2018-05-01T18:41:52.904Z,1.90
2018-05-01T18:44:23.732Z,1.87
2018-05-01T18:46:58.821Z,2.97
2018-05-01T18:49:35.714Z,1.50
2018-05-01T18:52:12.798Z,1.60
2018-05-01T18:57:47.490Z,1.60
2018-05-01T19:00:18.832Z,2.60
2018-05-01T19:02:52.267Z,2.07
2018-05-01T19:05:52.063Z,2.30
2018-05-01T19:08:24.937Z,3.10
2018-05-01T19:11:06.750Z,2.43
2018-05-01T19:13:37.279Z,2.30
2018-05-01T19:16:07.908Z,2.23
2018-05-01T19:18:39.241Z,2.10
2018-05-01T19:21:11.165Z,2.73
2018-05-01T19:23:41.872Z,2.50
2018-05-01T19:26:13.498Z,2.00
2018-05-01T19:28:44.317Z,2.90
2018-05-01T19:31:15.965Z,2.07
2018-05-01T19:33:46.527Z,1.70
2018-05-01T19:36:16.987Z,2.73
2018-05-01T19:38:48.120Z,2.77
2018-05-01T19:41:28.516Z,2.30
2018-05-01T19:44:00.357Z,2.30
2018-05-01T19:46:32.112Z,3.20
2018-05-01T19:49:03.093Z,5.07
2018-05-01T19:51:33.452Z,2.40
2018-05-01T19:54:04.091Z,5.37
2018-05-01T19:56:34.712Z,3.53
2018-05-01T19:59:06.153Z,6.90
2018-05-01T20:01:37.291Z,12.50
2018-05-01T20:04:10.414Z,13.07
2018-05-01T20:06:45.575Z,12.97
2018-05-01T20:09:20.018Z,9.97
2018-05-01T20:11:50.529Z,10.40
2018-05-01T20:14:21.206Z,9.47
2018-05-01T20:16:51.653Z,10.43
2018-05-01T20:19:22.247Z,6.50
2018-05-01T20:21:52.519Z,6.50
2018-05-01T20:24:23.287Z,4.13
2018-05-01T20:26:53.562Z,3.77
2018-05-01T20:29:26.953Z,3.07
2018-05-01T20:31:57.999Z,3.53
2018-05-01T20:34:29.579Z,3.90
2018-05-01T20:37:00.657Z,4.93
2018-05-01T20:39:31.110Z,6.60
2018-05-01T20:42:02.269Z,4.70
2018-05-01T20:44:32.871Z,5.30
2018-05-01T20:47:06.867Z,3.80
2018-05-01T20:49:38.245Z,4.47
2018-05-01T20:52:08.538Z,5.00
2018-05-01T20:54:39.308Z,7.50
2018-05-01T20:57:11.320Z,5.53
2018-05-01T20:59:42.186Z,5.07
2018-05-01T21:02:13.347Z,6.10
2018-05-01T21:04:45.008Z,4.53
2018-05-01T21:07:16.037Z,5.33
2018-05-01T21:09:46.665Z,6.23
2018-05-01T21:12:16.928Z,5.70
2018-05-01T21:14:47.169Z,7.63
2018-05-01T21:17:17.597Z,6.73
2018-05-01T21:19:47.991Z,7.17
2018-05-01T21:22:18.286Z,5.63
2018-05-01T21:24:48.627Z,6.07
2018-05-01T21:27:18.875Z,5.90
2018-05-01T21:29:49.239Z,5.87
2018-05-01T21:32:19.531Z,5.33
2018-05-01T21:34:49.849Z,3.93
2018-05-01T21:37:20.090Z,4.40
2018-05-01T21:39:50.399Z,4.10
2018-05-01T21:42:20.661Z,4.10
2018-05-01T21:44:51.097Z,5.40
2018-05-01T21:47:21.410Z,4.97
2018-05-01T21:49:51.660Z,4.00
2018-05-01T21:52:21.965Z,3.70
2018-05-01T21:54:53.229Z,4.00
2018-05-01T21:57:23.512Z,4.13
2018-05-01T21:59:53.930Z,2.90
2018-05-01T22:02:23.913Z,3.80
2018-05-01T22:04:54.267Z,3.60
2018-05-01T22:07:24.470Z,4.80
2018-05-01T22:09:54.883Z,3.20
2018-05-01T22:12:25.065Z,3.80
2018-05-01T22:14:55.521Z,3.70
2018-05-01T22:17:25.763Z,4.13
2018-05-01T22:19:55.718Z,4.03
2018-05-01T22:22:26.073Z,3.57
2018-05-01T22:24:56.316Z,3.43
2018-05-01T22:27:27.381Z,3.57
2018-05-01T22:29:57.657Z,3.77
2018-05-01T22:32:27.803Z,3.57
2018-05-01T22:34:58.108Z,3.30
2018-05-01T22:37:28.255Z,3.27
2018-05-01T22:39:58.414Z,3.13
2018-05-01T22:42:28.329Z,4.20
2018-05-01T22:44:58.766Z,3.53
2018-05-01T22:47:28.944Z,3.00
2018-05-01T22:49:59.989Z,3.40
2018-05-01T22:52:30.121Z,2.77
2018-05-01T22:55:00.374Z,3.47
2018-05-01T22:57:30.536Z,3.90
2018-05-01T23:00:01.160Z,3.23
2018-05-01T23:02:31.225Z,2.87
2018-05-01T23:05:02.377Z,4.83
2018-05-01T23:07:32.885Z,4.67
2018-05-01T23:10:03.116Z,3.30
2018-05-01T23:12:33.236Z,2.83
2018-05-01T23:15:03.462Z,3.57
2018-05-01T23:17:34.240Z,3.50
2018-05-01T23:20:04.569Z,3.17
2018-05-01T23:22:34.784Z,3.10
2018-05-01T23:25:04.950Z,3.00
2018-05-01T23:27:35.084Z,4.30
2018-05-01T23:30:05.283Z,5.53
2018-05-01T23:32:35.419Z,3.50
2018-05-01T23:35:05.657Z,3.60
2018-05-01T23:37:35.762Z,3.83
2018-05-01T23:40:05.922Z,3.60
2018-05-01T23:42:36.100Z,5.10
2018-05-01T23:45:06.238Z,3.43
2018-05-01T23:47:36.405Z,3.63
2018-05-01T23:50:06.637Z,5.00
2018-05-01T23:52:36.830Z,3.60
2018-05-01T23:55:07.115Z,4.00
2018-05-01T23:57:37.251Z,3.70
